createdAt,value
2023-01-26T00:01:18.255Z,-0.88
2023-01-26T00:03:46.848Z,-0.93
2023-01-26T00:06:17.427Z,-0.97
2023-01-26T00:08:46.743Z,-0.95
2023-01-26T00:11:16.275Z,-0.98
2023-01-26T00:13:44.172Z,-1.02
2023-01-26T00:16:14.666Z,-1.01
2023-01-26T00:18:43.278Z,-0.93
2023-01-26T00:21:14.648Z,-0.90
2023-01-26T00:23:42.287Z,-0.87
2023-01-26T00:26:11.394Z,-0.88
2023-01-26T00:28:39.079Z,-0.90
2023-01-26T00:31:08.318Z,-0.92
2023-01-26T00:33:37.322Z,-0.93
2023-01-26T00:36:05.515Z,-0.90
2023-01-26T00:38:33.173Z,-0.93
2023-01-26T00:41:00.837Z,-0.90
2023-01-26T00:43:34.460Z,-0.95
2023-01-26T00:46:02.085Z,-0.91
2023-01-26T00:48:29.723Z,-0.90
2023-01-26T00:50:58.734Z,-0.92
2023-01-26T00:53:26.462Z,-1.01
2023-01-26T00:55:55.973Z,-0.99
2023-01-26T00:58:23.584Z,-1.03
2023-01-26T01:00:51.184Z,-1.01
2023-01-26T01:03:18.821Z,-1.02
2023-01-26T01:05:46.423Z,-1.03
2023-01-26T01:08:15.448Z,-1.01
2023-01-26T01:10:43.067Z,-0.99
2023-01-26T01:13:10.753Z,-0.96
2023-01-26T01:15:39.748Z,-0.99
2023-01-26T01:18:07.425Z,-0.98
2023-01-26T01:20:35.048Z,-0.99
2023-01-26T01:23:02.689Z,-0.93
2023-01-26T01:25:31.617Z,-0.94
2023-01-26T01:27:59.170Z,-0.95
2023-01-26T01:30:26.811Z,-0.95
2023-01-26T01:32:54.431Z,-0.98
2023-01-26T01:35:22.072Z,-1.03
2023-01-26T01:37:49.680Z,-1.07
2023-01-26T01:40:17.318Z,-1.03
2023-01-26T01:42:49.956Z,-1.02
2023-01-26T01:45:38.283Z,-1.00
2023-01-26T01:48:07.928Z,-1.03
2023-01-26T01:50:38.626Z,-1.06
2023-01-26T01:53:07.690Z,-1.00
2023-01-26T01:55:35.721Z,-0.94
2023-01-26T01:58:05.224Z,-0.95
2023-01-26T02:00:32.866Z,-0.95
2023-01-26T02:03:15.051Z,-0.91
2023-01-26T02:05:44.477Z,-1.02
2023-01-26T02:08:13.316Z,-1.16
2023-01-26T02:10:40.107Z,-1.11
2023-01-26T02:13:09.497Z,-1.10
2023-01-26T02:15:37.305Z,-1.09
2023-01-26T02:18:06.339Z,-1.03
2023-01-26T02:20:38.242Z,-0.98
2023-01-26T02:23:09.632Z,-1.08
2023-01-26T02:25:42.605Z,-1.09
2023-01-26T02:28:11.595Z,-1.07
2023-01-26T02:30:39.345Z,-1.05
2023-01-26T02:33:08.416Z,-0.98
2023-01-26T02:35:36.000Z,-0.99
2023-01-26T02:38:03.600Z,-0.99
2023-01-26T02:40:37.375Z,-1.04
2023-01-26T02:43:04.159Z,-1.12
2023-01-26T02:45:34.132Z,-1.13
2023-01-26T02:48:04.699Z,-1.16
2023-01-26T02:50:31.450Z,-1.10
2023-01-26T02:52:59.112Z,-1.08
2023-01-26T02:55:26.465Z,-1.18
2023-01-26T02:57:55.253Z,-1.25
2023-01-26T03:00:24.836Z,-1.28
2023-01-26T03:02:55.256Z,-1.31
2023-01-26T03:05:22.900Z,-1.24
2023-01-26T03:07:50.651Z,-1.19
2023-01-26T03:10:18.544Z,-1.16
2023-01-26T03:12:46.592Z,-1.15
2023-01-26T03:15:28.162Z,-1.16
2023-01-26T03:18:36.581Z,-1.22
2023-01-26T03:21:23.625Z,-1.28
2023-01-26T03:24:09.215Z,-1.31
2023-01-26T03:26:54.897Z,-1.22
2023-01-26T03:29:23.012Z,-1.19
2023-01-26T03:31:50.783Z,-1.16
2023-01-26T03:34:20.511Z,-1.16
2023-01-26T03:36:48.228Z,-1.10
2023-01-26T03:39:30.135Z,-1.06
2023-01-26T03:42:15.220Z,-1.08
2023-01-26T03:45:00.553Z,-1.08
2023-01-26T03:47:45.789Z,-1.08
2023-01-26T03:50:32.526Z,-1.13
2023-01-26T03:53:18.078Z,-1.09
2023-01-26T03:56:03.375Z,-1.20
2023-01-26T03:58:33.789Z,-1.19
2023-01-26T04:01:01.463Z,-1.15
2023-01-26T04:03:46.643Z,-1.25
2023-01-26T04:06:33.384Z,-1.31
2023-01-26T04:09:01.046Z,-1.21
2023-01-26T04:11:28.681Z,-1.12
2023-01-26T04:14:13.908Z,-1.13
2023-01-26T04:16:59.428Z,-1.12
2023-01-26T04:19:44.654Z,-1.14
2023-01-26T04:22:15.060Z,-1.08
2023-01-26T04:24:42.720Z,-1.10
2023-01-26T04:27:11.710Z,-1.15
2023-01-26T04:29:39.414Z,-1.14
2023-01-26T04:32:07.063Z,-1.10
2023-01-26T04:34:34.769Z,-1.11
2023-01-26T04:37:02.419Z,-1.13
2023-01-26T04:39:31.457Z,-1.10
2023-01-26T04:41:59.076Z,-1.04
2023-01-26T04:44:26.745Z,-1.03
2023-01-26T04:46:54.401Z,-1.13
2023-01-26T04:49:22.180Z,-1.18
2023-01-26T04:51:49.858Z,-1.29
2023-01-26T04:54:17.550Z,-1.25
2023-01-26T04:56:46.696Z,-1.21
2023-01-26T04:59:15.154Z,-1.14
2023-01-26T05:01:42.993Z,-1.15
2023-01-26T05:04:12.766Z,-1.17
2023-01-26T05:06:42.077Z,-1.13
2023-01-26T05:09:09.908Z,-1.14
2023-01-26T05:11:37.590Z,-1.09
2023-01-26T05:14:06.798Z,-1.08
2023-01-26T05:16:34.907Z,-1.12
2023-01-26T05:19:03.062Z,-1.16
2023-01-26T05:21:30.700Z,-1.27
2023-01-26T05:23:58.359Z,-1.32
2023-01-26T05:26:26.190Z,-1.29
2023-01-26T05:28:53.845Z,-1.24
2023-01-26T05:31:22.898Z,-1.25
2023-01-26T05:33:50.629Z,-1.33
2023-01-26T05:36:18.212Z,-1.28
2023-01-26T05:38:45.857Z,-1.24
2023-01-26T05:41:13.463Z,-1.19
2023-01-26T05:43:41.129Z,-1.20
2023-01-26T05:46:08.822Z,-1.18
2023-01-26T05:48:37.791Z,-1.19
2023-01-26T05:51:05.613Z,-1.21
2023-01-26T05:53:33.265Z,-1.25
2023-01-26T05:56:00.931Z,-1.19
2023-01-26T05:58:28.589Z,-1.18
2023-01-26T06:00:56.303Z,-1.09
2023-01-26T06:03:24.026Z,-1.03
2023-01-26T06:05:56.609Z,-0.98
2023-01-26T06:08:24.236Z,-1.03
2023-01-26T06:10:51.968Z,-0.99
2023-01-26T06:13:19.633Z,-1.00
2023-01-26T06:15:47.242Z,-0.99
2023-01-26T06:18:14.936Z,-0.93
2023-01-26T06:20:44.276Z,-0.96
2023-01-26T06:23:13.784Z,-0.99
2023-01-26T06:25:41.444Z,-1.06
2023-01-26T06:28:09.349Z,-1.11
2023-01-26T06:30:37.145Z,-1.09
2023-01-26T06:33:06.921Z,-1.06
2023-01-26T06:35:36.010Z,-1.02
2023-01-26T06:38:03.859Z,-0.96
2023-01-26T06:40:32.843Z,-1.03
2023-01-26T06:43:00.459Z,-1.06
2023-01-26T06:45:28.120Z,-1.06
2023-01-26T06:47:55.820Z,-1.10
2023-01-26T06:50:26.531Z,-1.18
2023-01-26T06:52:56.756Z,-1.17
2023-01-26T06:55:29.509Z,-1.13
2023-01-26T06:57:58.474Z,-1.13
2023-01-26T07:00:26.180Z,-1.10
2023-01-26T07:02:53.810Z,-1.04
2023-01-26T07:05:21.448Z,-0.99
2023-01-26T07:07:49.119Z,-0.95
2023-01-26T07:10:17.067Z,-0.94
2023-01-26T07:12:46.703Z,-0.91
2023-01-26T07:15:15.724Z,-0.88
2023-01-26T07:17:43.350Z,-0.95
2023-01-26T07:20:12.962Z,-0.95
2023-01-26T07:22:40.681Z,-0.96
2023-01-26T07:25:08.913Z,-0.92
2023-01-26T07:27:36.507Z,-0.87
2023-01-26T07:30:04.750Z,-0.83
2023-01-26T07:32:33.963Z,-0.82
2023-01-26T07:35:01.569Z,-0.87
2023-01-26T07:37:29.245Z,-0.84
2023-01-26T07:39:56.943Z,-0.83
2023-01-26T07:42:24.541Z,-0.84
2023-01-26T07:44:52.354Z,-0.85
2023-01-26T07:47:20.564Z,-0.87
2023-01-26T07:49:49.592Z,-0.85
2023-01-26T07:52:17.217Z,-0.86
2023-01-26T07:54:44.788Z,-0.91
2023-01-26T07:57:13.222Z,-0.91
2023-01-26T07:59:40.835Z,-0.88
2023-01-26T08:02:10.523Z,-0.95
2023-01-26T08:04:40.026Z,-0.94
2023-01-26T08:07:08.986Z,-0.92
2023-01-26T08:09:37.013Z,-0.92
2023-01-26T08:12:05.326Z,-0.89
2023-01-26T08:14:45.871Z,-0.87
2023-01-26T08:17:16.134Z,-0.85
2023-01-26T08:19:43.803Z,-0.89
2023-01-26T08:22:12.806Z,-0.89
2023-01-26T08:24:40.477Z,-0.98
2023-01-26T08:27:08.124Z,-0.95
2023-01-26T08:29:35.764Z,-0.93
2023-01-26T08:32:03.982Z,-0.88
2023-01-26T08:34:31.756Z,-0.85
2023-01-26T08:36:59.461Z,-0.86
2023-01-26T08:39:28.489Z,-0.88
2023-01-26T08:41:56.115Z,-0.86
2023-01-26T08:44:23.790Z,-0.84
2023-01-26T08:46:51.440Z,-0.87
2023-01-26T08:49:19.058Z,-0.86
2023-01-26T08:51:46.716Z,-0.88
2023-01-26T08:54:14.383Z,-0.84
2023-01-26T08:56:43.330Z,-0.84
2023-01-26T08:59:10.984Z,-0.87
2023-01-26T09:01:38.669Z,-0.82
2023-01-26T09:04:06.529Z,-0.82
2023-01-26T09:06:34.141Z,-0.82
2023-01-26T09:09:01.779Z,-0.83
2023-01-26T09:11:29.404Z,-0.80
2023-01-26T09:13:58.442Z,-0.75
2023-01-26T09:16:26.398Z,-0.71
2023-01-26T09:18:55.144Z,-0.71
2023-01-26T09:21:24.052Z,-0.72
2023-01-26T09:23:51.725Z,-0.68
2023-01-26T09:26:19.413Z,-0.71
2023-01-26T09:28:51.303Z,-0.78
2023-01-26T09:31:20.456Z,-0.75
2023-01-26T09:33:49.214Z,-0.70
2023-01-26T09:36:17.263Z,-0.69
2023-01-26T09:38:44.946Z,-0.69
2023-01-26T09:41:23.902Z,-0.66
2023-01-26T09:43:52.771Z,-0.61
2023-01-26T09:46:25.384Z,-0.64
2023-01-26T09:49:05.919Z,-0.70
2023-01-26T09:51:36.351Z,-0.73
2023-01-26T09:54:07.411Z,-0.80
2023-01-26T09:56:35.195Z,-0.79
2023-01-26T09:59:07.665Z,-0.76
2023-01-26T10:01:40.210Z,-0.94
2023-01-26T10:04:14.575Z,-1.05
2023-01-26T10:06:42.590Z,-1.17
2023-01-26T10:09:15.951Z,-1.11
2023-01-26T10:11:46.166Z,-1.03
2023-01-26T10:14:16.115Z,-1.11
2023-01-26T10:16:48.597Z,-1.27
2023-01-26T10:19:21.929Z,-1.35
2023-01-26T10:21:51.639Z,-1.29
2023-01-26T10:24:23.175Z,-1.21
2023-01-26T10:26:51.996Z,-1.24
2023-01-26T10:29:20.647Z,-1.20
2023-01-26T10:31:49.692Z,-1.28
2023-01-26T10:34:18.864Z,-1.37
2023-01-26T10:36:47.313Z,-1.36
2023-01-26T10:39:16.352Z,-1.36
2023-01-26T10:41:57.916Z,-1.35
2023-01-26T10:44:32.677Z,-1.39
2023-01-26T10:47:07.000Z,-1.31
2023-01-26T10:49:34.904Z,-1.25
2023-01-26T10:52:16.120Z,-1.18
2023-01-26T10:54:44.756Z,-1.31
2023-01-26T10:57:18.956Z,-1.44
2023-01-26T10:59:51.941Z,-1.47
2023-01-26T11:02:24.542Z,-1.37
2023-01-26T11:05:16.880Z,-1.22
2023-01-26T11:07:44.698Z,-1.13
2023-01-26T11:10:27.361Z,-1.07
2023-01-26T11:13:09.417Z,-1.04
2023-01-26T11:15:39.269Z,-1.16
2023-01-26T11:18:17.535Z,-1.09
2023-01-26T11:20:49.142Z,-1.03
2023-01-26T11:23:24.732Z,-0.99
2023-01-26T11:26:09.370Z,-0.97
2023-01-26T11:28:45.378Z,-0.86
2023-01-26T11:31:18.186Z,-0.78
2023-01-26T11:33:54.865Z,-0.82
2023-01-26T11:36:29.501Z,-0.86
2023-01-26T11:39:04.215Z,-0.93
2023-01-26T11:41:42.094Z,-1.03
2023-01-26T11:44:21.874Z,-0.97
2023-01-26T11:47:03.987Z,-1.02
2023-01-26T11:49:44.659Z,-1.04
2023-01-26T11:52:19.148Z,-1.02
2023-01-26T11:55:03.415Z,-0.95
2023-01-26T11:57:37.403Z,-0.96
2023-01-26T12:00:20.759Z,-1.13
2023-01-26T12:03:01.019Z,-1.05
2023-01-26T12:05:32.642Z,-1.04
2023-01-26T12:08:03.356Z,-1.25
2023-01-26T12:10:33.955Z,-1.18
2023-01-26T12:13:06.935Z,-1.16
2023-01-26T12:15:36.003Z,-1.15
2023-01-26T12:18:08.925Z,-1.23
2023-01-26T12:20:40.695Z,-1.20
2023-01-26T12:23:14.897Z,-1.36
2023-01-26T12:25:43.574Z,-1.34
2023-01-26T12:28:20.705Z,-1.31
2023-01-26T12:30:52.920Z,-1.34
2023-01-26T12:33:20.883Z,-1.28
2023-01-26T12:36:01.576Z,-1.31
2023-01-26T12:38:44.215Z,-1.23
2023-01-26T12:41:15.367Z,-1.16
2023-01-26T12:43:56.263Z,-1.13
2023-01-26T12:46:25.569Z,-1.10
2023-01-26T12:48:54.843Z,-1.13
2023-01-26T12:51:27.037Z,-1.09
2023-01-26T12:53:59.529Z,-1.02
2023-01-26T12:56:30.207Z,-1.17
2023-01-26T12:58:58.749Z,-1.16
2023-01-26T13:01:29.039Z,-1.17
2023-01-26T13:03:58.519Z,-1.24
2023-01-26T13:06:28.584Z,-1.13
2023-01-26T13:09:06.015Z,-1.08
2023-01-26T13:11:58.948Z,-1.15
2023-01-26T13:14:35.679Z,-1.13
2023-01-26T13:17:54.844Z,-1.11
2023-01-26T13:20:44.875Z,-1.24
2023-01-26T13:23:40.149Z,-1.14
2023-01-26T13:26:18.314Z,-1.10
2023-01-26T13:28:47.044Z,-1.03
2023-01-26T13:31:15.118Z,-0.98
2023-01-26T13:33:44.697Z,-0.94
2023-01-26T13:36:16.051Z,-0.91
2023-01-26T13:38:49.154Z,-0.86
2023-01-26T13:41:19.343Z,-0.86
2023-01-26T13:43:50.785Z,-0.87
2023-01-26T13:46:24.066Z,-0.89
2023-01-26T13:48:53.033Z,-0.99
2023-01-26T13:51:23.457Z,-0.98
2023-01-26T13:54:04.565Z,-1.00
2023-01-26T13:56:33.770Z,-1.12
2023-01-26T13:59:12.782Z,-1.09
2023-01-26T14:01:45.119Z,-1.17
2023-01-26T14:04:20.106Z,-1.17
2023-01-26T14:06:51.171Z,-1.18
2023-01-26T14:09:20.393Z,-1.10
2023-01-26T14:11:56.354Z,-1.04
2023-01-26T14:14:26.323Z,-1.01
2023-01-26T14:16:54.213Z,-0.98
2023-01-26T14:19:23.576Z,-0.99
2023-01-26T14:21:53.383Z,-0.96
2023-01-26T14:24:27.344Z,-1.07
2023-01-26T14:26:55.288Z,-1.05
2023-01-26T14:29:25.293Z,-1.04
2023-01-26T14:31:54.032Z,-0.99
2023-01-26T14:34:24.353Z,-0.96
2023-01-26T14:37:06.959Z,-1.04
2023-01-26T14:39:35.922Z,-1.03
2023-01-26T14:42:04.182Z,-1.00
2023-01-26T14:44:31.793Z,-1.00
2023-01-26T14:47:02.943Z,-1.00
2023-01-26T14:49:45.449Z,-1.05
2023-01-26T14:52:18.595Z,-1.06
2023-01-26T14:54:50.208Z,-1.01
2023-01-26T14:57:19.814Z,-1.02
2023-01-26T14:59:50.091Z,-1.00
2023-01-26T15:02:20.263Z,-0.96
2023-01-26T15:04:53.051Z,-0.94
2023-01-26T15:07:33.315Z,-0.97
2023-01-26T15:10:03.229Z,-0.97
2023-01-26T15:12:35.047Z,-1.02
2023-01-26T15:15:03.220Z,-0.98
2023-01-26T15:17:32.139Z,-0.99
2023-01-26T15:19:59.813Z,-1.06
2023-01-26T15:22:27.744Z,-1.02
2023-01-26T15:25:17.959Z,-1.09
2023-01-26T15:27:50.718Z,-1.14
2023-01-26T15:30:19.330Z,-1.07
2023-01-26T15:32:46.925Z,-1.11
2023-01-26T15:35:23.312Z,-1.23
2023-01-26T15:38:00.405Z,-1.28
2023-01-26T15:40:29.921Z,-1.44
2023-01-26T15:43:12.713Z,-1.50
2023-01-26T15:45:40.908Z,-1.44
2023-01-26T15:48:08.552Z,-1.35
2023-01-26T15:50:36.335Z,-1.29
2023-01-26T15:53:03.967Z,-1.33
2023-01-26T15:55:33.999Z,-1.33
2023-01-26T15:58:01.787Z,-1.31
2023-01-26T16:00:29.408Z,-1.31
2023-01-26T16:02:57.083Z,-1.29
2023-01-26T16:05:25.753Z,-1.30
2023-01-26T16:07:53.557Z,-1.26
2023-01-26T16:10:21.287Z,-1.22
2023-01-26T16:12:51.220Z,-1.25
2023-01-26T16:15:28.218Z,-1.25
2023-01-26T16:17:55.849Z,-1.25
2023-01-26T16:20:23.639Z,-1.29
2023-01-26T16:22:51.277Z,-1.35
2023-01-26T16:25:24.201Z,-1.30
2023-01-26T16:27:54.674Z,-1.35
2023-01-26T16:30:23.116Z,-1.50
2023-01-26T16:32:51.077Z,-1.48
2023-01-26T16:35:21.387Z,-1.38
2023-01-26T16:37:49.201Z,-1.28
2023-01-26T16:40:19.168Z,-1.35
2023-01-26T16:42:49.158Z,-1.46
2023-01-26T16:45:20.088Z,-1.45
2023-01-26T16:47:49.833Z,-1.34
2023-01-26T16:50:17.803Z,-1.28
2023-01-26T16:52:45.374Z,-1.23
2023-01-26T16:55:15.944Z,-1.16
2023-01-26T16:57:45.594Z,-1.14
2023-01-26T17:00:16.095Z,-1.16
2023-01-26T17:02:47.701Z,-1.16
2023-01-26T17:05:16.348Z,-1.15
2023-01-26T17:07:44.050Z,-1.15
2023-01-26T17:10:12.786Z,-1.17
2023-01-26T17:12:40.501Z,-1.19
2023-01-26T17:15:10.931Z,-1.23
2023-01-26T17:17:38.815Z,-1.23
2023-01-26T17:20:18.521Z,-1.20
2023-01-26T17:22:47.366Z,-1.14
2023-01-26T17:25:16.897Z,-1.09
2023-01-26T17:27:45.009Z,-1.08
2023-01-26T17:30:13.113Z,-1.04
2023-01-26T17:32:40.781Z,-1.14
2023-01-26T17:35:10.358Z,-1.08
2023-01-26T17:37:39.393Z,-1.02
2023-01-26T17:40:08.754Z,-0.97
2023-01-26T17:42:36.466Z,-0.94
2023-01-26T17:45:05.017Z,-0.95
2023-01-26T17:47:34.200Z,-0.94
2023-01-26T17:50:01.899Z,-0.96
2023-01-26T17:52:35.423Z,-1.05
2023-01-26T17:55:06.374Z,-1.10
2023-01-26T17:57:34.442Z,-1.16
2023-01-26T18:00:02.205Z,-1.16
2023-01-26T18:02:30.102Z,-1.25
2023-01-26T18:04:58.104Z,-1.45
2023-01-26T18:07:26.303Z,-1.37
2023-01-26T18:09:55.408Z,-1.36
2023-01-26T18:12:23.086Z,-1.31
2023-01-26T18:14:50.817Z,-1.32
2023-01-26T18:17:18.547Z,-1.35
2023-01-26T18:19:46.196Z,-1.28
2023-01-26T18:22:13.950Z,-1.24
2023-01-26T18:24:41.515Z,-1.18
2023-01-26T18:27:10.466Z,-1.14
2023-01-26T18:29:38.163Z,-1.17
2023-01-26T18:32:06.346Z,-1.29
2023-01-26T18:34:34.029Z,-1.36
2023-01-26T18:37:01.639Z,-1.59
2023-01-26T18:39:30.079Z,-1.46
2023-01-26T18:41:57.821Z,-1.67
2023-01-26T18:44:27.396Z,-1.64
2023-01-26T18:46:55.364Z,-1.53
2023-01-26T18:49:23.000Z,-1.56
2023-01-26T18:51:51.731Z,-1.54
2023-01-26T18:54:20.115Z,-1.52
2023-01-26T18:56:48.324Z,-1.55
2023-01-26T18:59:16.972Z,-1.53
2023-01-26T19:01:46.060Z,-1.64
2023-01-26T19:04:14.194Z,-1.60
2023-01-26T19:06:42.851Z,-1.59
2023-01-26T19:09:11.770Z,-1.54
2023-01-26T19:11:40.040Z,-1.48
2023-01-26T19:14:08.581Z,-1.45
2023-01-26T19:16:39.239Z,-1.37
2023-01-26T19:19:08.332Z,-1.33
2023-01-26T19:21:35.940Z,-1.28
2023-01-26T19:24:06.036Z,-1.24
2023-01-26T19:26:34.128Z,-1.19
2023-01-26T19:29:02.271Z,-1.14
2023-01-26T19:31:30.762Z,-1.11
2023-01-26T19:34:00.096Z,-1.10
2023-01-26T19:36:30.872Z,-1.16
2023-01-26T19:38:58.808Z,-1.17
2023-01-26T19:41:26.905Z,-1.15
2023-01-26T19:43:54.841Z,-1.26
2023-01-26T19:46:22.634Z,-1.33
2023-01-26T19:48:50.345Z,-1.35
2023-01-26T19:51:22.632Z,-1.24
2023-01-26T19:53:55.095Z,-1.16
2023-01-26T19:56:24.715Z,-1.12
2023-01-26T19:58:54.120Z,-1.07
2023-01-26T20:01:22.713Z,-1.12
2023-01-26T20:03:50.807Z,-1.18
2023-01-26T20:06:20.893Z,-1.17
2023-01-26T20:08:49.098Z,-1.14
2023-01-26T20:11:19.785Z,-1.26
2023-01-26T20:13:47.458Z,-1.32
2023-01-26T20:16:15.134Z,-1.39
2023-01-26T20:18:42.793Z,-1.35
2023-01-26T20:21:10.535Z,-1.27
2023-01-26T20:23:45.580Z,-1.24
2023-01-26T20:26:27.390Z,-1.21
2023-01-26T20:28:58.255Z,-1.20
2023-01-26T20:31:27.293Z,-1.18
2023-01-26T20:33:55.608Z,-1.24
2023-01-26T20:36:27.138Z,-1.27
2023-01-26T20:38:55.481Z,-1.28
2023-01-26T20:41:27.230Z,-1.23
2023-01-26T20:44:19.491Z,-1.17
2023-01-26T20:46:47.840Z,-1.12
2023-01-26T20:49:18.534Z,-1.07
2023-01-26T20:51:47.019Z,-1.04
2023-01-26T20:54:16.583Z,-1.22
2023-01-26T20:56:46.744Z,-1.29
2023-01-26T20:59:14.586Z,-1.38
2023-01-26T21:01:42.267Z,-1.32
2023-01-26T21:04:09.877Z,-1.27
2023-01-26T21:06:38.872Z,-1.19
2023-01-26T21:09:12.515Z,-1.15
2023-01-26T21:11:40.648Z,-1.08
2023-01-26T21:14:12.823Z,-1.05
2023-01-26T21:16:42.882Z,-1.15
2023-01-26T21:19:10.973Z,-1.20
2023-01-26T21:21:38.855Z,-1.19
2023-01-26T21:24:07.406Z,-1.22
2023-01-26T21:26:35.204Z,-1.44
2023-01-26T21:29:02.985Z,-1.43
2023-01-26T21:31:33.064Z,-1.33
2023-01-26T21:34:01.432Z,-1.24
2023-01-26T21:36:30.728Z,-1.18
2023-01-26T21:39:02.316Z,-1.14
2023-01-26T21:41:48.761Z,-1.22
2023-01-26T21:44:17.897Z,-1.18
2023-01-26T21:46:47.829Z,-1.17
2023-01-26T21:49:15.814Z,-1.19
2023-01-26T21:52:06.444Z,-1.18
2023-01-26T21:54:36.694Z,-1.20
2023-01-26T21:57:25.876Z,-1.18
2023-01-26T21:59:52.814Z,-1.16
2023-01-26T22:02:22.122Z,-1.16
2023-01-26T22:04:50.013Z,-1.10
2023-01-26T22:07:17.695Z,-1.06
2023-01-26T22:09:45.467Z,-1.04
2023-01-26T22:12:13.089Z,-1.05
2023-01-26T22:14:40.895Z,-1.07
2023-01-26T22:17:09.098Z,-1.05
2023-01-26T22:19:38.742Z,-1.03
2023-01-26T22:22:06.446Z,-1.07
2023-01-26T22:24:34.212Z,-1.12
2023-01-26T22:27:01.969Z,-1.10
2023-01-26T22:29:29.650Z,-1.05
2023-01-26T22:31:57.388Z,-1.00
2023-01-26T22:34:25.200Z,-0.99
2023-01-26T22:36:54.235Z,-1.00
2023-01-26T22:39:22.036Z,-1.06
2023-01-26T22:41:49.635Z,-1.09
2023-01-26T22:44:17.320Z,-1.10
2023-01-26T22:46:44.938Z,-1.11
2023-01-26T22:49:12.666Z,-1.09
2023-01-26T22:51:41.201Z,-1.10
2023-01-26T22:54:10.759Z,-1.13
2023-01-26T22:56:38.396Z,-1.16
2023-01-26T22:59:06.151Z,-1.16
2023-01-26T23:01:34.283Z,-1.17
2023-01-26T23:04:02.539Z,-1.16
2023-01-26T23:06:30.338Z,-1.18
2023-01-26T23:09:01.019Z,-1.17
2023-01-26T23:11:30.722Z,-1.18
2023-01-26T23:13:59.373Z,-1.19
2023-01-26T23:16:27.861Z,-1.19
2023-01-26T23:18:57.260Z,-1.21
2023-01-26T23:21:25.628Z,-1.19
2023-01-26T23:23:53.622Z,-1.23
2023-01-26T23:26:21.739Z,-1.27
2023-01-26T23:28:50.806Z,-1.27
2023-01-26T23:31:19.314Z,-1.26
2023-01-26T23:33:47.115Z,-1.22
2023-01-26T23:36:15.420Z,-1.19
2023-01-26T23:38:44.280Z,-1.15
2023-01-26T23:41:12.191Z,-1.20
2023-01-26T23:43:39.965Z,-1.21
2023-01-26T23:46:09.969Z,-1.19
2023-01-26T23:48:37.704Z,-1.19
2023-01-26T23:51:07.294Z,-1.17
2023-01-26T23:53:35.612Z,-1.12
2023-01-26T23:56:07.574Z,-1.13
2023-01-26T23:58:35.137Z,-1.14
